Time;durP1;ratioP1;P1;durP2;ratioP2;P2;SDS_P1;SDS_P2;PMS_P1;PMS_P2;Temp;Humidity;BMP_temperature;BMP_pressure;BME280_temperature;BME280_humidity;BME280_pressure;Samples;Min_cycle;Max_cycle;Signal;HPM_P1;HPM_P2
2022/04/13 00:01:55;;;;;;;13.82;8.73;;;11.30;99.90;;;;;;4910832;29;20115;-69
2022/04/13 00:04:22;;;;;;;23.30;10.10;;;11.20;99.90;;;;;;4914421;29;20040;-68
2022/04/13 00:06:49;;;;;;;17.73;8.80;;;11.20;99.90;;;;;;4912871;29;20044;-68
2022/04/13 00:09:16;;;;;;;14.07;8.25;;;11.20;99.90;;;;;;4914129;29;20044;-73
2022/04/13 00:11:43;;;;;;;15.40;8.90;;;11.20;99.90;;;;;;4912555;29;20397;-68
2022/04/13 00:14:10;;;;;;;14.80;8.30;;;11.10;99.90;;;;;;4913312;29;20496;-67
2022/04/13 00:16:36;;;;;;;13.82;9.32;;;11.10;99.90;;;;;;4897992;29;20111;-68
2022/04/13 00:19:03;;;;;;;16.05;9.75;;;11.10;99.90;;;;;;4882425;29;20263;-67
2022/04/13 00:21:30;;;;;;;14.20;9.65;;;11.00;99.90;;;;;;4914243;29;20055;-67
2022/04/13 00:23:57;;;;;;;14.20;9.38;;;11.00;99.90;;;;;;4913238;29;20048;-67
2022/04/13 00:26:24;;;;;;;16.27;10.45;;;10.90;99.90;;;;;;4914082;29;20047;-68
2022/04/13 00:28:51;;;;;;;19.40;9.80;;;10.90;99.90;;;;;;4912929;29;20492;-68
2022/04/13 00:31:18;;;;;;;21.75;12.07;;;10.90;99.90;;;;;;4912202;29;20400;-68
2022/04/13 00:33:45;;;;;;;17.20;10.98;;;10.90;99.90;;;;;;4913474;29;20052;-67
2022/04/13 00:36:12;;;;;;;18.27;11.15;;;10.90;99.90;;;;;;4913010;29;20063;-67
2022/04/13 00:38:38;;;;;;;20.77;12.52;;;10.90;99.90;;;;;;4912468;29;20520;-67
2022/04/13 00:41:05;;;;;;;17.05;11.85;;;10.80;99.90;;;;;;4913835;29;20048;-69
2022/04/13 00:43:32;;;;;;;14.73;12.25;;;10.80;99.90;;;;;;4914198;29;20071;-67
2022/04/13 00:45:59;;;;;;;17.88;12.27;;;10.80;99.90;;;;;;4913781;29;20051;-67
2022/04/13 00:48:36;;;;;;;18.77;12.57;;;10.80;99.90;;;;;;4914093;29;20052;-67
2022/04/13 00:51:03;;;;;;;20.25;13.25;;;10.80;99.90;;;;;;4912153;29;20470;-67
2022/04/13 00:53:30;;;;;;;20.23;12.38;;;10.70;99.90;;;;;;4912946;29;20063;-67
2022/04/13 00:55:58;;;;;;;18.23;12.57;;;10.70;99.90;;;;;;4914403;29;20511;-67
2022/04/13 00:58:31;;;;;;;17.33;12.73;;;10.70;99.90;;;;;;4914686;29;20404;-67
2022/04/13 01:00:59;;;;;;;18.10;12.20;;;10.70;99.90;;;;;;4913306;29;20496;-67
2022/04/13 01:03:27;;;;;;;18.05;12.68;;;10.60;99.90;;;;;;4897520;29;20131;-67
2022/04/13 01:05:54;;;;;;;20.00;12.85;;;10.60;99.90;;;;;;4928384;29;20083;-68
2022/04/13 01:08:21;;;;;;;20.80;14.52;;;10.60;99.90;;;;;;4929264;29;20100;-68
2022/04/13 01:10:49;;;;;;;17.67;12.07;;;10.60;99.90;;;;;;4913581;29;20044;-67
2022/04/13 01:13:16;;;;;;;21.00;12.88;;;10.50;99.90;;;;;;4928074;29;20048;-69
2022/04/13 01:15:43;;;;;;;23.48;14.48;;;10.50;99.90;;;;;;4913457;29;20780;-69
2022/04/13 01:18:11;;;;;;;21.73;12.88;;;10.50;99.90;;;;;;4909960;29;20051;-67
2022/04/13 01:20:39;;;;;;;25.98;15.07;;;10.60;99.90;;;;;;4912872;29;20040;-66
2022/04/13 01:23:07;;;;;;;18.60;13.43;;;10.50;99.90;;;;;;4912154;29;20116;-70
2022/04/13 01:25:34;;;;;;;20.63;14.52;;;10.50;99.90;;;;;;4919299;29;20060;-66
2022/04/13 01:28:01;;;;;;;20.75;12.45;;;10.40;99.90;;;;;;4928667;29;20044;-67
2022/04/13 01:30:27;;;;;;;24.52;14.40;;;10.40;99.90;;;;;;4913894;29;20131;-66
2022/04/13 01:32:54;;;;;;;17.83;13.27;;;10.40;99.90;;;;;;4914495;29;20056;-66
2022/04/13 01:35:23;;;;;;;20.50;13.93;;;10.40;99.90;;;;;;4911611;29;20132;-67
2022/04/13 01:37:50;;;;;;;23.35;13.90;;;10.40;99.90;;;;;;4912146;29;20056;-67
2022/04/13 01:40:17;;;;;;;23.20;16.10;;;10.30;99.90;;;;;;4913752;29;20456;-67
2022/04/13 01:42:47;;;;;;;22.75;16.17;;;10.30;99.90;;;;;;4913848;29;20052;-66
2022/04/13 01:45:19;;;;;;;22.20;14.32;;;10.30;99.90;;;;;;4913948;29;20051;-69
2022/04/13 01:47:48;;;;;;;18.55;13.75;;;10.30;99.90;;;;;;4914135;29;20097;-67
2022/04/13 01:50:18;;;;;;;19.55;14.07;;;10.30;99.90;;;;;;4913659;29;20059;-76
2022/04/13 01:52:46;;;;;;;23.05;13.52;;;10.30;99.90;;;;;;4913390;29;20064;-66
2022/04/13 01:55:13;;;;;;;26.52;15.30;;;10.30;99.90;;;;;;4919360;29;20055;-67
2022/04/13 01:57:40;;;;;;;20.67;15.30;;;10.30;99.90;;;;;;4911471;29;20048;-67
2022/04/13 02:00:09;;;;;;;21.38;15.68;;;10.30;99.90;;;;;;4921872;29;20108;-71
2022/04/13 02:02:36;;;;;;;23.13;14.60;;;10.30;99.90;;;;;;4915433;29;20417;-70
2022/04/13 02:05:03;;;;;;;23.15;15.02;;;10.30;99.90;;;;;;4915839;29;20056;-66
2022/04/13 02:07:30;;;;;;;23.35;16.20;;;10.40;99.90;;;;;;4915185;29;20064;-68
2022/04/13 02:09:57;;;;;;;27.02;16.13;;;10.40;99.90;;;;;;4917509;29;20074;-66
2022/04/13 02:12:24;;;;;;;26.23;16.73;;;10.40;99.90;;;;;;4914529;29;20560;-67
2022/04/13 02:14:51;;;;;;;23.73;15.43;;;10.40;99.90;;;;;;4915758;29;20067;-70
2022/04/13 02:17:19;;;;;;;23.55;15.23;;;10.40;99.90;;;;;;4917051;29;20048;-67
2022/04/13 02:19:46;;;;;;;23.52;15.95;;;10.50;99.90;;;;;;4914752;29;20066;-73
2022/04/13 02:22:13;;;;;;;22.15;14.98;;;10.50;99.90;;;;;;4916243;29;20056;-68
2022/04/13 02:25:01;;;;;;;22.08;16.23;;;10.50;99.90;;;;;;4911992;29;20123;-66
2022/04/13 02:27:28;;;;;;;21.05;14.75;;;10.60;99.90;;;;;;4916179;29;20048;-66
2022/04/13 02:29:55;;;;;;;23.65;15.38;;;10.60;99.90;;;;;;4917070;29;20067;-66
2022/04/13 02:32:22;;;;;;;19.10;14.65;;;10.70;99.90;;;;;;4915112;29;20059;-70
2022/04/13 02:34:48;;;;;;;18.50;14.57;;;10.80;99.90;;;;;;4916149;29;20052;-71
2022/04/13 02:37:16;;;;;;;18.08;13.85;;;10.80;99.90;;;;;;4916350;29;20147;-66
2022/04/13 02:39:46;;;;;;;19.20;13.55;;;10.90;99.90;;;;;;4915669;29;20100;-67
2022/04/13 02:42:14;;;;;;;17.80;12.48;;;10.90;99.90;;;;;;4916026;29;20048;-67
2022/04/13 02:44:42;;;;;;;22.92;14.82;;;11.00;99.90;;;;;;4915605;29;20048;-67
2022/04/13 02:47:09;;;;;;;18.90;13.00;;;11.00;99.90;;;;;;4915662;29;20100;-67
2022/04/13 02:49:36;;;;;;;20.10;12.75;;;11.00;99.90;;;;;;4915849;29;20052;-66
2022/04/13 02:52:04;;;;;;;18.10;12.85;;;11.00;99.90;;;;;;4915717;29;20051;-67
2022/04/13 02:54:31;;;;;;;15.27;12.32;;;11.00;99.90;;;;;;4899793;29;20048;-67
2022/04/13 02:56:58;;;;;;;17.73;12.63;;;11.10;99.90;;;;;;4916262;29;20056;-68
2022/04/13 02:59:25;;;;;;;16.67;11.68;;;11.10;99.90;;;;;;4916040;29;20083;-66
2022/04/13 03:01:53;;;;;;;20.15;12.23;;;11.10;99.90;;;;;;4915638;29;20412;-66
2022/04/13 03:04:26;;;;;;;20.80;13.73;;;11.10;99.90;;;;;;4913309;29;20056;-71
2022/04/13 03:06:54;;;;;;;17.02;12.68;;;11.20;99.90;;;;;;4914235;29;20046;-67
2022/04/13 03:09:21;;;;;;;18.25;12.88;;;11.20;99.90;;;;;;4916286;29;20086;-66
2022/04/13 03:11:47;;;;;;;18.20;13.00;;;11.20;99.90;;;;;;4915614;29;20080;-67
2022/04/13 03:14:14;;;;;;;17.75;13.65;;;11.20;99.90;;;;;;4915324;29;20056;-68
2022/04/13 03:16:41;;;;;;;21.95;13.27;;;11.20;99.90;;;;;;4916138;29;20103;-69
2022/04/13 03:19:08;;;;;;;18.15;11.68;;;11.20;99.90;;;;;;4915236;29;20465;-67
2022/04/13 03:21:35;;;;;;;18.38;12.35;;;11.20;99.90;;;;;;4916563;29;20099;-66
2022/04/13 03:24:02;;;;;;;18.08;12.63;;;11.30;99.90;;;;;;4915718;29;20048;-67
2022/04/13 03:26:29;;;;;;;19.80;13.70;;;11.20;99.90;;;;;;4915397;29;20056;-67
2022/04/13 03:28:56;;;;;;;16.48;12.32;;;11.30;99.90;;;;;;4915121;29;20052;-67
2022/04/13 03:31:22;;;;;;;23.45;13.82;;;11.30;99.90;;;;;;4916026;29;20051;-67
2022/04/13 03:33:49;;;;;;;25.92;14.18;;;11.30;99.90;;;;;;4915049;29;20087;-67
2022/04/13 03:36:18;;;;;;;18.83;13.40;;;11.30;99.90;;;;;;4916063;29;20540;-67
2022/04/13 03:38:45;;;;;;;19.20;12.30;;;11.30;99.90;;;;;;4914899;29;20052;-67
2022/04/13 03:41:12;;;;;;;19.48;11.43;;;11.30;99.90;;;;;;4916320;29;20298;-68
2022/04/13 03:43:39;;;;;;;18.77;13.48;;;11.40;99.90;;;;;;4914965;29;20048;-68
2022/04/13 03:46:06;;;;;;;18.75;11.48;;;11.40;99.90;;;;;;4915123;29;20056;-73
2022/04/13 03:48:33;;;;;;;20.05;13.45;;;11.40;99.90;;;;;;4919005;29;20044;-67
2022/04/13 03:51:00;;;;;;;14.68;10.95;;;11.40;99.90;;;;;;4915289;29;20045;-68
2022/04/13 03:53:27;;;;;;;16.70;11.82;;;11.40;99.90;;;;;;4914372;29;20103;-68
2022/04/13 03:55:54;;;;;;;16.17;11.35;;;11.40;99.90;;;;;;4914939;29;20048;-67
2022/04/13 03:58:21;;;;;;;18.10;10.95;;;11.40;99.90;;;;;;4915370;29;20104;-70
2022/04/13 04:00:48;;;;;;;21.25;10.70;;;11.40;99.90;;;;;;4914861;29;20115;-67
2022/04/13 04:03:15;;;;;;;19.27;12.80;;;11.50;99.90;;;;;;4913221;29;20056;-69
2022/04/13 04:05:42;;;;;;;16.83;11.32;;;11.50;99.90;;;;;;4915173;29;20496;-67
2022/04/13 04:08:08;;;;;;;15.77;11.23;;;11.50;99.90;;;;;;4914288;29;20044;-67
2022/04/13 04:10:36;;;;;;;12.50;10.05;;;11.50;99.90;;;;;;4914193;29;20059;-68
2022/04/13 04:13:03;;;;;;;15.65;10.65;;;11.50;99.90;;;;;;4914532;29;20048;-67
2022/04/13 04:15:30;;;;;;;16.27;10.60;;;11.50;99.90;;;;;;4914425;29;20512;-67
2022/04/13 04:17:57;;;;;;;15.23;10.70;;;11.50;99.90;;;;;;4915326;29;20465;-68
2022/04/13 04:20:24;;;;;;;15.95;10.95;;;11.60;99.90;;;;;;4912354;29;20532;-67
2022/04/13 04:22:51;;;;;;;16.65;12.15;;;11.60;99.90;;;;;;4913870;29;20060;-68
2022/04/13 04:25:18;;;;;;;16.85;9.60;;;11.60;99.90;;;;;;4915251;29;20055;-68
2022/04/13 04:27:45;;;;;;;14.80;10.98;;;11.60;99.90;;;;;;4915448;29;20531;-67
2022/04/13 04:30:12;;;;;;;13.18;10.13;;;11.60;99.90;;;;;;4914119;29;20055;-70
2022/04/13 04:32:39;;;;;;;17.23;10.40;;;11.60;99.90;;;;;;4912668;29;20496;-68
2022/04/13 04:35:07;;;;;;;14.88;9.63;;;11.60;99.90;;;;;;4914190;29;20051;-70
2022/04/13 04:37:34;;;;;;;16.35;10.48;;;11.60;99.90;;;;;;4914392;29;20047;-67
2022/04/13 04:40:00;;;;;;;11.13;9.32;;;11.50;99.90;;;;;;4915389;29;20115;-67
2022/04/13 04:42:27;;;;;;;13.60;9.82;;;11.50;99.90;;;;;;4914303;29;20056;-66
2022/04/13 04:44:56;;;;;;;13.85;9.80;;;11.60;99.90;;;;;;4915196;29;20126;-68
2022/04/13 04:47:23;;;;;;;15.97;10.13;;;11.60;99.90;;;;;;4913101;29;20398;-68
2022/04/13 04:49:50;;;;;;;17.85;10.20;;;11.60;99.90;;;;;;4913429;29;20782;-69
2022/04/13 04:52:17;;;;;;;13.77;9.43;;;11.60;99.90;;;;;;4912082;29;20115;-66
2022/04/13 04:54:45;;;;;;;13.15;10.45;;;11.60;99.90;;;;;;4897892;29;20055;-68
2022/04/13 04:57:12;;;;;;;12.68;9.43;;;11.60;99.90;;;;;;4913439;29;20044;-68
2022/04/13 04:59:39;;;;;;;13.95;9.55;;;11.60;99.90;;;;;;4914301;29;20100;-71
2022/04/13 05:02:06;;;;;;;13.85;10.23;;;11.60;99.90;;;;;;4912897;29;20476;-67
2022/04/13 05:04:33;;;;;;;12.05;9.20;;;11.60;99.90;;;;;;4914693;29;20135;-69
2022/04/13 05:07:00;;;;;;;14.02;9.52;;;11.60;99.90;;;;;;4913999;29;20063;-68
2022/04/13 05:09:28;;;;;;;14.93;9.52;;;11.60;99.90;;;;;;4914865;29;20108;-67
2022/04/13 05:12:01;;;;;;;12.75;9.50;;;11.60;99.90;;;;;;4912778;29;20055;-73
2022/04/13 05:14:29;;;;;;;11.82;9.10;;;11.60;99.90;;;;;;4911640;29;20135;-67
2022/04/13 05:16:56;;;;;;;20.55;9.80;;;11.60;99.90;;;;;;4907837;29;20048;-69
2022/04/13 05:19:22;;;;;;;13.35;9.07;;;11.60;99.90;;;;;;4911673;29;20055;-67
2022/04/13 05:21:49;;;;;;;15.85;10.00;;;11.50;99.90;;;;;;4911995;29;20059;-67
2022/04/13 05:24:16;;;;;;;12.43;10.23;;;11.50;99.90;;;;;;4912526;29;20500;-67
2022/04/13 05:26:43;;;;;;;17.23;12.32;;;11.40;99.90;;;;;;4912814;29;20068;-67
2022/04/13 05:29:10;;;;;;;14.27;10.57;;;11.40;99.90;;;;;;4910574;29;20052;-67
2022/04/13 05:31:37;;;;;;;15.48;11.07;;;11.30;99.90;;;;;;4914521;29;20152;-67
2022/04/13 05:34:04;;;;;;;14.30;10.50;;;11.30;99.90;;;;;;4897627;29;20059;-67
2022/04/13 05:36:31;;;;;;;16.63;11.48;;;11.30;99.90;;;;;;4913448;29;20056;-68
2022/04/13 05:38:58;;;;;;;17.45;10.48;;;11.30;99.90;;;;;;4915220;29;20048;-68
2022/04/13 05:41:24;;;;;;;15.30;10.98;;;11.30;99.90;;;;;;4916684;29;20123;-74
2022/04/13 05:43:51;;;;;;;17.85;11.82;;;11.30;99.90;;;;;;4916196;29;20096;-67
2022/04/13 05:46:18;;;;;;;19.17;12.85;;;11.30;99.90;;;;;;4917249;29;20060;-67
2022/04/13 05:48:45;;;;;;;18.75;12.02;;;11.20;99.90;;;;;;4917080;29;20052;-68
2022/04/13 05:51:12;;;;;;;18.58;11.60;;;11.20;99.90;;;;;;4916830;29;20488;-68
2022/04/13 05:53:39;;;;;;;20.17;12.90;;;11.20;99.90;;;;;;4917483;29;20059;-67
2022/04/13 05:56:06;;;;;;;16.02;11.93;;;11.20;99.90;;;;;;4916562;29;20413;-68
2022/04/13 05:58:33;;;;;;;16.02;10.50;;;11.20;99.90;;;;;;4916073;29;20056;-68
2022/04/13 06:01:00;;;;;;;19.30;11.77;;;11.20;99.90;;;;;;4914233;29;20052;-67
2022/04/13 06:03:27;;;;;;;17.90;10.88;;;11.30;99.90;;;;;;4915476;29;20048;-70
2022/04/13 06:06:08;;;;;;;21.27;11.88;;;11.30;99.90;;;;;;4916632;29;20044;-67
2022/04/13 06:08:35;;;;;;;16.23;11.30;;;11.40;99.90;;;;;;4916983;29;20131;-67
2022/04/13 06:11:02;;;;;;;17.13;12.38;;;11.40;99.90;;;;;;4917195;29;20099;-68
2022/04/13 06:13:29;;;;;;;16.98;12.73;;;11.50;99.90;;;;;;4915801;29;20071;-68
2022/04/13 06:15:56;;;;;;;17.77;12.10;;;11.60;99.90;;;;;;4916366;29;20508;-69
2022/04/13 06:18:23;;;;;;;17.15;12.40;;;11.70;99.90;;;;;;4916433;29;20052;-67
2022/04/13 06:20:50;;;;;;;19.58;13.18;;;11.80;99.90;;;;;;4917835;29;20055;-66
2022/04/13 06:23:18;;;;;;;20.73;12.50;;;11.80;99.90;;;;;;4916774;29;20052;-66
2022/04/13 06:25:45;;;;;;;18.90;12.82;;;11.90;99.90;;;;;;4916393;29;20059;-62
2022/04/13 06:28:12;;;;;;;19.02;13.13;;;12.00;99.90;;;;;;4916340;29;20180;-66
2022/04/13 06:30:38;;;;;;;22.17;16.08;;;12.00;99.90;;;;;;4916813;29;20511;-68
2022/04/13 06:33:05;;;;;;;18.73;13.13;;;12.10;99.90;;;;;;4916980;29;20107;-67
2022/04/13 06:35:34;;;;;;;19.60;11.65;;;12.20;99.90;;;;;;4916454;29;20052;-68
2022/04/13 06:38:01;;;;;;;17.05;10.90;;;12.30;99.90;;;;;;4917373;29;20055;-67
2022/04/13 06:40:27;;;;;;;16.30;11.77;;;12.40;99.90;;;;;;4915964;29;20107;-67
2022/04/13 06:42:55;;;;;;;16.33;11.02;;;12.50;99.90;;;;;;4915932;29;20052;-67
2022/04/13 06:45:22;;;;;;;17.10;10.48;;;12.60;99.90;;;;;;4919982;29;20056;-65
2022/04/13 06:47:50;;;;;;;13.27;11.18;;;12.70;99.90;;;;;;4897575;29;20053;-63
2022/04/13 06:50:17;;;;;;;17.63;11.32;;;12.80;99.90;;;;;;4914142;29;20084;-55
2022/04/13 06:52:44;;;;;;;17.63;12.68;;;12.80;99.90;;;;;;4913083;29;20901;-59
2022/04/13 06:55:11;;;;;;;18.30;12.15;;;12.90;99.90;;;;;;4916485;29;20055;-59
2022/04/13 06:57:38;;;;;;;19.52;12.07;;;12.90;99.90;;;;;;4898607;29;20052;-58
2022/04/13 07:00:10;;;;;;;14.77;10.10;;;13.00;99.90;;;;;;4908346;29;20044;-67
2022/04/13 07:02:37;;;;;;;13.93;9.82;;;13.00;99.90;;;;;;4915777;29;20135;-65
2022/04/13 07:05:25;;;;;;;14.35;9.55;;;13.10;99.90;;;;;;4916604;29;20063;-75
2022/04/13 07:07:52;;;;;;;12.98;9.32;;;13.20;99.90;;;;;;4916754;29;20241;-65
2022/04/13 07:10:19;;;;;;;12.00;8.98;;;13.20;99.90;;;;;;4915563;29;20060;-66
2022/04/13 07:12:46;;;;;;;14.00;8.35;;;13.30;99.90;;;;;;4917044;29;20084;-71
2022/04/13 07:15:16;;;;;;;11.70;8.25;;;13.50;99.90;;;;;;4916824;29;20048;-71
2022/04/13 07:17:44;;;;;;;14.52;8.00;;;13.50;99.90;;;;;;4900845;29;20318;-71
2022/04/13 07:20:11;;;;;;;15.48;7.90;;;13.60;99.90;;;;;;4916231;29;20056;-72
2022/04/13 07:22:45;;;;;;;12.48;6.68;;;13.70;99.90;;;;;;4915776;29;20403;-70
2022/04/13 07:25:13;;;;;;;13.27;5.32;;;13.90;99.90;;;;;;4914718;29;20044;-71
2022/04/13 07:27:40;;;;;;;9.98;4.95;;;13.90;99.90;;;;;;4916722;29;20112;-69
2022/04/13 07:30:07;;;;;;;10.30;4.93;;;14.00;99.90;;;;;;4914814;29;20048;-71
2022/04/13 07:32:34;;;;;;;10.88;4.95;;;14.10;99.90;;;;;;4916336;29;20059;-70
2022/04/13 07:35:04;;;;;;;8.98;4.07;;;14.20;99.90;;;;;;4913786;29;20084;-71
2022/04/13 07:37:31;;;;;;;;;;;14.30;99.90;;;;;;4916798;29;20048;-71
2022/04/13 07:39:58;;;;;;;11.15;5.70;;;14.40;99.90;;;;;;4914605;29;19927;-72
2022/04/13 07:42:26;;;;;;;38.08;26.73;;;14.50;99.90;;;;;;4915404;29;20520;-72
2022/04/13 07:44:54;;;;;;;10.13;5.53;;;14.50;99.90;;;;;;4914714;29;20056;-68
2022/04/13 07:47:26;;;;;;;12.05;5.18;;;14.60;99.90;;;;;;4908769;29;20465;-70
2022/04/13 07:49:54;;;;;;;10.38;4.90;;;14.60;99.90;;;;;;4909791;29;20047;-71
2022/04/13 07:52:21;;;;;;;7.82;4.57;;;14.70;99.90;;;;;;4912643;29;20052;-70
2022/04/13 07:54:48;;;;;;;11.48;5.35;;;14.70;99.90;;;;;;4907548;29;20130;-69
2022/04/13 07:57:15;;;;;;;12.10;5.15;;;14.80;99.90;;;;;;4910539;29;20157;-69
2022/04/13 07:59:43;;;;;;;9.45;4.53;;;15.00;99.90;;;;;;4908196;29;20135;-70
2022/04/13 08:02:10;;;;;;;7.75;4.07;;;15.00;99.90;;;;;;4909840;29;20056;-69
2022/04/13 08:04:37;;;;;;;10.73;4.45;;;15.00;99.90;;;;;;4912569;29;20052;-69
2022/04/13 08:07:04;;;;;;;8.95;4.97;;;15.00;99.90;;;;;;4911884;29;20056;-72
2022/04/13 08:09:31;;;;;;;7.47;4.60;;;15.00;99.90;;;;;;4915752;29;20048;-70
2022/04/13 08:11:57;;;;;;;7.30;4.90;;;14.90;99.90;;;;;;4915320;29;20492;-68
2022/04/13 08:14:24;;;;;;;6.78;3.85;;;15.00;99.90;;;;;;4915862;29;20052;-71
2022/04/13 08:16:51;;;;;;;13.63;5.13;;;15.00;99.90;;;;;;4898765;29;20056;-70
2022/04/13 08:19:18;;;;;;;7.65;4.75;;;15.00;99.90;;;;;;4913603;29;20044;-70
2022/04/13 08:21:45;;;;;;;6.25;4.60;;;15.00;99.90;;;;;;4914826;29;20059;-69
2022/04/13 08:24:13;;;;;;;9.02;4.38;;;15.00;99.90;;;;;;4916872;29;20048;-69
2022/04/13 08:26:40;;;;;;;7.60;4.50;;;15.10;99.90;;;;;;4915735;29;20059;-66
2022/04/13 08:29:07;;;;;;;7.00;4.70;;;15.20;99.90;;;;;;4915287;29;20408;-68
2022/04/13 08:31:34;;;;;;;6.05;4.60;;;15.30;99.90;;;;;;4914367;29;20044;-69
2022/04/13 08:34:01;;;;;;;8.23;4.38;;;15.40;99.90;;;;;;4915862;29;20445;-68
2022/04/13 08:36:28;;;;;;;7.80;5.00;;;15.50;99.90;;;;;;4914214;29;20385;-70
2022/04/13 08:38:55;;;;;;;7.53;4.15;;;15.60;99.90;;;;;;4914459;29;20052;-69
2022/04/13 08:41:29;;;;;;;5.25;3.70;;;15.70;99.90;;;;;;4898872;29;20048;-69
2022/04/13 08:44:00;;;;;;;6.07;3.08;;;15.80;99.90;;;;;;4914320;29;20056;-69
2022/04/13 08:46:27;;;;;;;7.47;3.20;;;15.90;99.90;;;;;;4884092;29;20063;-69
2022/04/13 08:48:56;;;;;;;9.52;3.72;;;16.00;99.90;;;;;;4914489;29;20123;-69
2022/04/13 08:51:44;;;;;;;4.72;2.67;;;16.00;99.90;;;;;;4914600;29;20059;-70
2022/04/13 08:54:17;;;;;;;10.00;3.58;;;16.00;99.90;;;;;;4914335;29;20071;-68
2022/04/13 08:56:44;;;;;;;6.40;3.67;;;16.00;99.90;;;;;;4915588;29;20143;-70
2022/04/13 08:59:55;;;;;;;4.60;2.80;;;16.00;99.90;;;;;;4901982;29;20052;-70
2022/04/13 09:02:30;;;;;;;7.80;2.97;;;16.20;99.90;;;;;;4901064;29;20055;-73
2022/04/13 09:04:58;;;;;;;7.45;3.55;;;16.30;99.90;;;;;;4914991;29;20087;-69
2022/04/13 09:07:27;;;;;;;5.90;3.08;;;16.40;99.90;;;;;;4914536;29;20052;-70
2022/04/13 09:09:54;;;;;;;9.15;3.25;;;16.50;99.90;;;;;;4880134;29;20059;-69
2022/04/13 09:12:21;;;;;;;5.97;2.90;;;16.50;99.90;;;;;;4896267;29;20053;-69
2022/04/13 09:14:48;;;;;;;8.13;3.70;;;16.60;99.90;;;;;;4902396;29;20056;-70
2022/04/13 09:17:15;;;;;;;4.78;3.13;;;16.50;99.90;;;;;;4918625;29;20044;-70
2022/04/13 09:19:44;;;;;;;5.85;3.05;;;16.50;99.90;;;;;;4902497;29;20058;-70
2022/04/13 09:22:10;;;;;;;7.68;3.58;;;16.50;99.90;;;;;;4918326;29;20055;-70
2022/04/13 09:24:38;;;;;;;7.82;3.08;;;16.60;99.90;;;;;;4902542;29;20054;-69
2022/04/13 09:27:05;;;;;;;7.20;3.60;;;16.60;99.90;;;;;;4918426;29;20051;-69
2022/04/13 09:29:32;;;;;;;6.75;3.00;;;16.60;99.90;;;;;;4917980;29;20052;-70
2022/04/13 09:31:59;;;;;;;13.57;8.38;;;16.60;99.90;;;;;;4918858;29;20062;-70
2022/04/13 09:34:26;;;;;;;18.35;10.30;;;16.50;99.90;;;;;;4918487;29;20048;-70
2022/04/13 09:36:53;;;;;;;9.02;3.75;;;16.60;99.90;;;;;;4908804;29;20162;-70
2022/04/13 09:39:20;;;;;;;7.18;4.57;;;16.60;99.90;;;;;;4918427;29;20519;-69
2022/04/13 09:41:47;;;;;;;6.53;3.45;;;16.60;99.90;;;;;;4902186;29;20082;-69
2022/04/13 09:44:18;;;;;;;4.30;3.20;;;16.70;99.90;;;;;;4918898;29;20055;-69
2022/04/13 09:46:45;;;;;;;8.57;3.25;;;16.80;99.90;;;;;;4917803;29;20059;-70
2022/04/13 09:49:16;;;;;;;5.18;2.70;;;16.90;99.90;;;;;;4919212;29;20052;-69
2022/04/13 09:51:49;;;;;;;6.65;2.95;;;17.00;99.90;;;;;;4916956;29;20056;-71
2022/04/13 09:54:25;;;;;;;6.88;2.75;;;17.10;99.90;;;;;;4919062;29;20059;-70
2022/04/13 09:56:52;;;;;;;7.85;3.15;;;17.10;99.90;;;;;;4917599;29;20084;-69
2022/04/13 09:59:29;;;;;;;4.97;2.72;;;17.20;99.90;;;;;;4932843;29;20555;-71
2022/04/13 10:01:56;;;;;;;7.18;3.03;;;17.30;99.90;;;;;;4918664;29;20079;-70
2022/04/13 10:04:27;;;;;;;8.30;3.55;;;17.30;99.90;;;;;;4917538;29;20064;-70
2022/04/13 10:06:54;;;;;;;6.47;3.45;;;17.40;99.90;;;;;;4918960;29;20055;-70
2022/04/13 10:09:22;;;;;;;7.70;4.00;;;17.50;99.90;;;;;;4916979;29;20433;-72
2022/04/13 10:12:01;;;;;;;9.55;6.45;;;17.60;99.90;;;;;;4915173;29;20055;-71
2022/04/13 10:14:28;;;;;;;6.80;3.60;;;17.80;99.90;;;;;;4916236;29;20056;-70
2022/04/13 10:16:56;;;;;;;7.15;3.10;;;17.80;99.90;;;;;;4918422;29;20061;-69
2022/04/13 10:19:23;;;;;;;7.72;3.13;;;17.80;99.90;;;;;;4918004;29;20488;-69
2022/04/13 10:21:51;;;;;;;6.75;3.50;;;17.70;99.90;;;;;;4918041;29;20052;-70
2022/04/13 10:24:21;;;;;;;6.10;2.53;;;17.70;99.90;;;;;;4914124;29;20063;-70
2022/04/13 10:27:20;;;;;;;6.90;2.97;;;17.80;99.90;;;;;;4917869;29;20058;-69
2022/04/13 10:29:48;;;;;;;7.22;2.72;;;17.90;99.90;;;;;;4899016;29;20079;-70
2022/04/13 10:32:18;;;;;;;5.90;3.20;;;18.00;99.90;;;;;;4917461;29;20052;-69
2022/04/13 10:34:46;;;;;;;5.22;3.13;;;18.20;99.90;;;;;;4917705;29;20052;-70
2022/04/13 10:37:15;;;;;;;4.47;2.97;;;18.30;99.90;;;;;;4916493;29;20074;-69
2022/04/13 10:39:42;;;;;;;4.53;2.30;;;18.30;99.90;;;;;;4917347;29;20044;-72
2022/04/13 10:42:10;;;;;;;5.82;2.53;;;18.40;99.10;;;;;;4916456;29;20687;-73
2022/04/13 10:45:02;;;;;;;8.02;2.33;;;18.50;97.50;;;;;;4916407;29;20104;-70
2022/04/13 10:47:55;;;;;;;5.55;2.00;;;18.70;95.90;;;;;;4916488;29;20055;-69
2022/04/13 10:50:31;;;;;;;4.20;2.00;;;18.80;94.70;;;;;;4894399;29;20104;-74
2022/04/13 10:53:06;;;;;;;3.90;1.92;;;18.70;93.20;;;;;;4916015;29;20056;-70
2022/04/13 10:55:34;;;;;;;3.40;1.88;;;18.80;93.00;;;;;;4916403;29;20052;-70
2022/04/13 10:58:14;;;;;;;6.03;3.15;;;18.70;93.00;;;;;;4916198;29;20059;-70
2022/04/13 11:00:41;;;;;;;;;;;18.80;93.80;;;;;;4916608;29;20063;-67
2022/04/13 11:03:08;;;;;;;5.72;2.10;;;18.80;93.10;;;;;;4915845;29;19930;-69
2022/04/13 11:05:35;;;;;;;4.28;1.90;;;19.00;93.00;;;;;;4916310;29;20061;-70
2022/04/13 11:08:14;;;;;;;7.28;2.67;;;19.20;93.40;;;;;;4916305;29;20478;-67
2022/04/13 11:10:42;;;;;;;15.73;2.60;;;19.20;93.00;;;;;;4917181;29;20059;-69
2022/04/13 11:13:09;;;;;;;5.53;2.05;;;19.20;91.30;;;;;;4900015;29;20051;-70
2022/04/13 11:15:44;;;;;;;3.90;2.08;;;19.30;93.10;;;;;;4916818;29;20139;-79
2022/04/13 11:18:13;;;;;;;4.55;2.72;;;19.30;92.80;;;;;;4917229;29;20048;-70
2022/04/13 11:20:58;;;;;;;4.53;2.20;;;19.40;93.10;;;;;;4915422;29;20059;-75
2022/04/13 11:23:44;;;;;;;7.25;2.38;;;19.50;92.20;;;;;;4917042;29;20424;-70
2022/04/13 11:26:11;;;;;;;3.15;2.00;;;19.50;90.70;;;;;;4915222;29;20051;-68
2022/04/13 11:28:38;;;;;;;4.30;2.17;;;19.40;89.90;;;;;;4911097;29;20060;-68
2022/04/13 11:31:11;;;;;;;6.10;2.08;;;19.40;88.90;;;;;;4934296;29;20051;-69
2022/04/13 11:33:52;;;;;;;3.75;1.83;;;19.30;87.10;;;;;;4920266;29;20055;-69
2022/04/13 11:36:20;;;;;;;2.92;1.75;;;19.20;89.50;;;;;;4896321;29;20059;-68
2022/04/13 11:39:07;;;;;;;3.42;1.80;;;19.20;88.50;;;;;;4900930;29;20112;-69
2022/04/13 11:41:33;;;;;;;4.10;1.85;;;19.10;88.90;;;;;;4915491;29;20595;-70
2022/04/13 11:44:16;;;;;;;7.57;3.17;;;19.20;88.50;;;;;;4915431;29;20051;-68
2022/04/13 11:46:43;;;;;;;8.82;2.17;;;19.20;89.70;;;;;;4898896;29;20060;-68
2022/04/13 11:49:11;;;;;;;3.45;1.80;;;19.30;90.50;;;;;;4916354;29;20052;-69
2022/04/13 11:51:38;;;;;;;6.45;2.60;;;19.50;90.20;;;;;;4884347;29;20079;-68
2022/04/13 11:54:06;;;;;;;8.63;3.03;;;19.60;90.00;;;;;;4914611;29;20060;-68
2022/04/13 11:56:34;;;;;;;4.45;2.45;;;19.80;88.70;;;;;;4916030;29;20052;-68
2022/04/13 11:59:01;;;;;;;4.27;2.20;;;19.90;85.80;;;;;;4914761;29;20127;-68
2022/04/13 12:01:28;;;;;;;2.88;1.80;;;20.10;87.80;;;;;;4914793;29;20062;-67
2022/04/13 12:03:56;;;;;;;5.00;2.70;;;20.10;82.60;;;;;;4915582;29;20048;-68
2022/04/13 12:06:25;;;;;;;2.78;1.52;;;20.10;82.90;;;;;;4899605;29;20048;-67
2022/04/13 12:08:55;;;;;;;3.47;1.52;;;20.00;83.30;;;;;;4899876;29;20067;-67
2022/04/13 12:11:46;;;;;;;4.85;2.25;;;20.00;84.00;;;;;;4913967;29;20128;-68
2022/04/13 12:14:28;;;;;;;5.43;2.05;;;20.10;81.80;;;;;;4914147;29;20083;-68
2022/04/13 12:16:59;;;;;;;4.68;1.85;;;20.10;80.60;;;;;;4914344;29;20056;-68
2022/04/13 12:19:41;;;;;;;3.53;1.90;;;20.10;81.20;;;;;;4915653;29;20127;-68
2022/04/13 12:22:15;;;;;;;3.35;1.50;;;20.10;81.20;;;;;;4914010;29;20055;-68
2022/04/13 12:25:04;;;;;;;6.80;2.15;;;20.10;80.30;;;;;;4914120;29;20484;-68
2022/04/13 12:27:31;;;;;;;6.93;3.95;;;20.20;81.70;;;;;;4915774;29;20049;-70
2022/04/13 12:30:17;;;;;;;2.35;1.63;;;20.10;81.00;;;;;;4915135;29;20119;-67
2022/04/13 12:32:45;;;;;;;5.03;1.55;;;19.90;78.10;;;;;;4912563;29;20108;-66
2022/04/13 12:35:13;;;;;;;3.37;1.60;;;19.70;78.20;;;;;;4913545;29;20052;-65
2022/04/13 12:37:57;;;;;;;2.85;1.48;;;19.60;82.00;;;;;;4899244;29;20355;-67
2022/04/13 12:40:28;;;;;;;2.90;1.30;;;19.60;81.90;;;;;;4913275;29;20055;-67
2022/04/13 12:42:55;;;;;;;2.55;1.33;;;19.50;82.50;;;;;;4914232;29;20052;-65
2022/04/13 12:45:29;;;;;;;4.05;1.52;;;19.50;82.30;;;;;;4914851;29;20056;-66